Decoded Metar for SABE (BUENOS AIRES in ARGENTINA) (IATA:AEP) | Meteo·Mobile Aviation Weather
aviador You're here:

SABE Decoded Metar

BUENOS AIRES in ARGENTINA
Report Time2018-08-21 16:00:00
UTC Time2018-08-21 16:07:45
Flight Rules vfr VFR
Wind050° at 06 kt
W.Decomp.*RWY 13: 1.8 kt HW 5.7 kt LCW
W.Rank050° ranks 4
Current wind is below 050° avg. (6.4)
Visibility9999 m
Phenomena:N/A
Clouds:N/A
Expected CloudBase > 3,200 ft AGL from Temp-Dew spread
CeilingNone
Temp11°C (ISA -4)
Dew Point03°C (58% RH)
AAT7.3°C
QNH1029 hPa
Density Alt-889 ft
Elevation20 ft
Report Wrong Elevation
Raw Report
METAR SABE 211600Z 05006KT CAVOK 11/03 Q1029 NOSIG=

Extra information for SABE:More info

Metar Taf Metar & Taf Last 4 Metars F.Rules Stats Wind Profile Meteogram Temp Stats Airport Information Weather charts Add Link Nearby VenuesMetar ALERT Operation Metar Decoded Social comments